Time;durP1;ratioP1;P1;durP2;ratioP2;P2;SDS_P1;SDS_P2;PMS_P1;PMS_P2;Temp;Humidity;BMP_temperature;BMP_pressure;BME280_temperature;BME280_humidity;BME280_pressure;Samples;Min_cycle;Max_cycle;Signal;HPM_P1;HPM_P2
2023/06/19 00:00:44;;;;;;;5.60;4.05;;;;;;;;;;10373477;28;20014;-69
2023/06/19 00:05:44;;;;;;;6.68;4.28;;;;;;;;;;10378119;28;20020;-69
2023/06/19 00:10:45;;;;;;;6.00;3.70;;;;;;;;;;10381406;28;20227;-69
2023/06/19 00:15:45;;;;;;;4.45;3.70;;;;;;;;;;10381633;28;20013;-69
2023/06/19 00:20:46;;;;;;;5.30;4.03;;;;;;;;;;10381329;28;20029;-69
2023/06/19 00:25:46;;;;;;;4.68;3.78;;;;;;;;;;10381817;28;20042;-69
2023/06/19 00:30:46;;;;;;;8.43;4.38;;;;;;;;;;10381129;28;20014;-69
2023/06/19 00:35:48;;;;;;;6.60;4.72;;;;;;;;;;10371482;28;20271;-69
2023/06/19 00:40:48;;;;;;;6.45;4.60;;;;;;;;;;10382426;28;20089;-69
2023/06/19 00:45:48;;;;;;;9.05;4.63;;;;;;;;;;10381876;28;20018;-69
2023/06/19 00:50:49;;;;;;;6.80;4.40;;;;;;;;;;10382002;28;20033;-69
2023/06/19 00:55:53;;;;;;;5.20;3.88;;;;;;;;;;10382008;28;20029;-69
2023/06/19 01:00:53;;;;;;;7.68;4.40;;;;;;;;;;10374603;28;20029;-69
2023/06/19 01:05:54;;;;;;;6.50;4.03;;;;;;;;;;10341351;28;20232;-69
2023/06/19 01:10:56;;;;;;;7.00;4.63;;;;;;;;;;10341171;28;20029;-69
2023/06/19 01:15:57;;;;;;;5.18;4.10;;;;;;;;;;10341387;28;20064;-70
2023/06/19 01:21:18;;;;;;;5.22;3.80;;;;;;;;;;10340608;28;20015;-69
2023/06/19 01:26:19;;;;;;;12.65;5.65;;;;;;;;;;10339978;28;20332;-69
2023/06/19 01:31:38;;;;;;;9.10;5.28;;;;;;;;;;10370378;28;20025;-70
2023/06/19 01:36:38;;;;;;;7.88;5.28;;;;;;;;;;10354144;28;20037;-69
2023/06/19 01:41:41;;;;;;;6.25;4.15;;;;;;;;;;10377058;28;20357;-69
2023/06/19 01:46:41;;;;;;;10.63;4.57;;;;;;;;;;10379927;28;20335;-69
2023/06/19 01:51:41;;;;;;;6.22;4.70;;;;;;;;;;10379865;28;20021;-69
2023/06/19 01:56:41;;;;;;;8.35;4.90;;;;;;;;;;10379911;28;20013;-69
2023/06/19 02:01:42;;;;;;;9.13;4.80;;;;;;;;;;10379785;28;20234;-69
2023/06/19 02:06:42;;;;;;;14.52;5.45;;;;;;;;;;10379232;28;20089;-69
2023/06/19 02:11:42;;;;;;;7.05;4.88;;;;;;;;;;10378946;28;20023;-69
2023/06/19 02:16:43;;;;;;;8.23;5.38;;;;;;;;;;10379379;28;20130;-70
2023/06/19 02:21:43;;;;;;;7.28;5.25;;;;;;;;;;10377534;28;20048;-69
2023/06/19 02:26:43;;;;;;;9.07;5.23;;;;;;;;;;10378003;28;20029;-68
2023/06/19 02:31:44;;;;;;;11.75;6.05;;;;;;;;;;10378463;28;20021;-68
2023/06/19 02:36:47;;;;;;;11.05;5.28;;;;;;;;;;10377819;28;20320;-68
2023/06/19 02:41:47;;;;;;;9.10;5.43;;;;;;;;;;10381924;28;20044;-68
2023/06/19 02:46:47;;;;;;;16.02;5.70;;;;;;;;;;10377890;28;20026;-69
2023/06/19 02:51:47;;;;;;;12.98;5.75;;;;;;;;;;10377718;28;20041;-69
2023/06/19 02:56:48;;;;;;;8.27;6.00;;;;;;;;;;10377612;28;20092;-71
2023/06/19 03:01:48;;;;;;;13.55;6.80;;;;;;;;;;10377349;28;20045;-69
2023/06/19 03:06:49;;;;;;;11.27;7.40;;;;;;;;;;10377013;28;20020;-69
2023/06/19 03:11:49;;;;;;;12.52;7.20;;;;;;;;;;10377103;28;20055;-70
2023/06/19 03:16:50;;;;;;;12.82;7.45;;;;;;;;;;10376916;28;20239;-71
2023/06/19 03:21:50;;;;;;;13.10;6.40;;;;;;;;;;10375547;28;20358;-71
2023/06/19 03:26:50;;;;;;;10.07;7.03;;;;;;;;;;10376613;28;20044;-71
2023/06/19 03:31:51;;;;;;;12.07;7.80;;;;;;;;;;10376186;28;20025;-71
2023/06/19 03:36:51;;;;;;;9.83;6.80;;;;;;;;;;10375621;28;20050;-71
2023/06/19 03:41:51;;;;;;;16.75;7.55;;;;;;;;;;10375403;28;20324;-71
2023/06/19 03:46:51;;;;;;;10.18;7.63;;;;;;;;;;10375896;28;20068;-68
2023/06/19 03:51:52;;;;;;;13.38;7.97;;;;;;;;;;10375418;28;20018;-70
2023/06/19 03:56:52;;;;;;;13.10;7.85;;;;;;;;;;10374092;28;20214;-70
2023/06/19 04:01:52;;;;;;;10.15;7.60;;;;;;;;;;10375672;28;20040;-70
2023/06/19 04:06:53;;;;;;;24.55;9.63;;;;;;;;;;10375498;28;20085;-72
2023/06/19 04:11:53;;;;;;;19.67;9.70;;;;;;;;;;10360550;28;20536;-72
2023/06/19 04:16:53;;;;;;;25.65;9.35;;;;;;;;;;10339173;28;20017;-72
2023/06/19 04:21:54;;;;;;;15.95;8.88;;;;;;;;;;10372737;28;20026;-70
2023/06/19 04:26:54;;;;;;;19.52;7.70;;;;;;;;;;10373802;28;20013;-72
2023/06/19 04:31:55;;;;;;;18.50;7.07;;;;;;;;;;10371631;28;20022;-70
2023/06/19 04:36:58;;;;;;;15.13;6.45;;;;;;;;;;10374253;28;20486;-70
2023/06/19 04:41:58;;;;;;;14.23;6.50;;;;;;;;;;10373775;28;20029;-71
2023/06/19 04:47:01;;;;;;;15.05;5.68;;;;;;;;;;10372032;28;20064;-71
2023/06/19 04:52:01;;;;;;;9.93;4.93;;;;;;;;;;10375211;28;20308;-71
2023/06/19 04:57:01;;;;;;;13.00;6.35;;;;;;;;;;10377640;28;20048;-72
2023/06/19 05:02:01;;;;;;;9.55;6.05;;;;;;;;;;10374877;28;20056;-72
2023/06/19 05:07:02;;;;;;;15.20;5.03;;;;;;;;;;10376540;28;20025;-72
2023/06/19 05:12:03;;;;;;;6.78;4.55;;;;;;;;;;10377748;28;20014;-72
2023/06/19 05:17:03;;;;;;;10.63;4.63;;;;;;;;;;10375851;28;20081;-74
2023/06/19 05:22:03;;;;;;;13.97;4.93;;;;;;;;;;10358020;28;20314;-73
2023/06/19 05:27:04;;;;;;;10.83;4.50;;;;;;;;;;10375927;28;20021;-73
2023/06/19 05:32:04;;;;;;;7.63;3.60;;;;;;;;;;10379192;28;20064;-73
2023/06/19 05:37:05;;;;;;;9.82;4.15;;;;;;;;;;10379751;28;20256;-74
2023/06/19 05:42:05;;;;;;;13.47;3.73;;;;;;;;;;10379752;28;20024;-73
2023/06/19 05:47:06;;;;;;;7.43;3.65;;;;;;;;;;10379603;28;20315;-74
2023/06/19 05:52:06;;;;;;;8.73;3.83;;;;;;;;;;10379693;28;20084;-74
2023/06/19 05:57:07;;;;;;;4.82;3.50;;;;;;;;;;10379418;28;20033;-74
2023/06/19 06:02:07;;;;;;;11.07;4.38;;;;;;;;;;10377790;28;20094;-73
2023/06/19 06:07:08;;;;;;;7.28;3.53;;;;;;;;;;10378467;28;20149;-72
2023/06/19 06:12:08;;;;;;;9.32;3.63;;;;;;;;;;10378816;28;20331;-73
2023/06/19 06:17:09;;;;;;;3.03;2.60;;;;;;;;;;10378829;28;20087;-72
2023/06/19 06:22:10;;;;;;;7.05;3.70;;;;;;;;;;10378309;28;20085;-74
2023/06/19 06:27:10;;;;;;;7.68;3.22;;;;;;;;;;10378294;28;20523;-72
2023/06/19 06:32:10;;;;;;;3.28;2.60;;;;;;;;;;10377810;28;20022;-73
2023/06/19 06:37:10;;;;;;;11.00;3.75;;;;;;;;;;10377796;28;20054;-72
2023/06/19 06:42:11;;;;;;;6.40;2.87;;;;;;;;;;10377707;28;20028;-73
2023/06/19 06:47:11;;;;;;;4.50;2.70;;;;;;;;;;10377461;28;20022;-72
2023/06/19 06:52:11;;;;;;;6.57;3.28;;;;;;;;;;10376098;28;20276;-73
2023/06/19 06:57:11;;;;;;;5.05;2.65;;;;;;;;;;10359780;28;20181;-72
2023/06/19 07:02:12;;;;;;;3.65;2.95;;;;;;;;;;10377361;28;20034;-73
2023/06/19 07:07:12;;;;;;;6.30;3.33;;;;;;;;;;10377298;28;20200;-73
2023/06/19 07:12:13;;;;;;;14.07;4.40;;;;;;;;;;10375248;28;20044;-73
2023/06/19 07:17:13;;;;;;;6.72;2.55;;;;;;;;;;10376212;28;20028;-72
2023/06/19 07:22:13;;;;;;;9.65;2.67;;;;;;;;;;10376697;28;20343;-72
2023/06/19 07:27:14;;;;;;;11.63;3.10;;;;;;;;;;10376397;28;20009;-72
2023/06/19 07:32:14;;;;;;;5.60;3.00;;;;;;;;;;10376422;28;20025;-72
2023/06/19 07:37:17;;;;;;;7.63;3.10;;;;;;;;;;10375940;28;20332;-73
2023/06/19 07:42:18;;;;;;;12.02;2.38;;;;;;;;;;10375828;28;20026;-72
2023/06/19 07:47:18;;;;;;;4.93;2.55;;;;;;;;;;10376018;28;20212;-73
2023/06/19 07:52:19;;;;;;;3.70;2.73;;;;;;;;;;10376047;28;20029;-72
2023/06/19 07:57:19;;;;;;;4.03;2.40;;;;;;;;;;10375823;28;20339;-73
2023/06/19 08:02:19;;;;;;;9.20;2.70;;;;;;;;;;10376008;28;20014;-73
2023/06/19 08:07:20;;;;;;;4.50;2.27;;;;;;;;;;10375722;28;20493;-73
2023/06/19 08:12:20;;;;;;;6.55;2.20;;;;;;;;;;10374683;28;20565;-72
2023/06/19 08:17:20;;;;;;;2.63;2.00;;;;;;;;;;10375414;28;20308;-71
2023/06/19 08:22:21;;;;;;;7.18;2.50;;;;;;;;;;10373659;28;20022;-72
2023/06/19 08:27:22;;;;;;;4.13;2.13;;;;;;;;;;10380933;28;20330;-71
2023/06/19 08:32:22;;;;;;;4.50;2.40;;;;;;;;;;10382852;28;20088;-72
2023/06/19 08:37:22;;;;;;;4.03;2.30;;;;;;;;;;10381777;28;20057;-72
2023/06/19 08:42:22;;;;;;;4.50;2.55;;;;;;;;;;10382018;28;20018;-72
2023/06/19 08:47:28;;;;;;;6.47;1.75;;;;;;;;;;10382350;28;20203;-72
2023/06/19 08:52:29;;;;;;;3.17;1.65;;;;;;;;;;10382179;28;20354;-73
2023/06/19 08:57:33;;;;;;;3.38;1.80;;;;;;;;;;10382227;28;20120;-73
2023/06/19 09:02:43;;;;;;;3.53;2.30;;;;;;;;;;10380751;28;20021;-72
2023/06/19 09:07:44;;;;;;;6.63;2.03;;;;;;;;;;10381272;28;20090;-72
2023/06/19 09:12:56;;;;;;;2.80;1.60;;;;;;;;;;10380738;28;20231;-72
2023/06/19 09:18:14;;;;;;;4.63;2.00;;;;;;;;;;10380807;28;20030;-72
2023/06/19 09:23:17;;;;;;;3.95;2.00;;;;;;;;;;10380706;28;20251;-72
2023/06/19 09:28:21;;;;;;;2.80;2.15;;;;;;;;;;10380102;28;20061;-72
2023/06/19 09:33:21;;;;;;;5.47;2.35;;;;;;;;;;10380516;28;20050;-71
2023/06/19 10:29:59;;;;;;;4.38;1.70;;;;;;;;;;10516438;27;20352;-76
2023/06/19 10:35:00;;;;;;;5.10;2.10;;;;;;;;;;10516395;28;20024;-81
2023/06/19 10:40:10;;;;;;;3.53;2.13;;;;;;;;;;10514056;28;20418;-81
2023/06/19 10:45:16;;;;;;;2.13;1.60;;;;;;;;;;10432661;28;20033;-78
2023/06/19 10:50:16;;;;;;;4.70;2.10;;;;;;;;;;10474336;28;20020;-85
2023/06/19 10:55:17;;;;;;;2.35;1.73;;;;;;;;;;10515150;28;20544;-77
2023/06/19 11:00:23;;;;;;;13.10;2.80;;;;;;;;;;10516916;28;20475;-85
2023/06/19 11:05:25;;;;;;;7.13;2.10;;;;;;;;;;10515209;28;20423;-77
2023/06/19 11:10:26;;;;;;;4.57;2.40;;;;;;;;;;10493130;28;20023;-82
2023/06/19 11:15:34;;;;;;;5.10;2.72;;;;;;;;;;10492958;28;20024;-78
2023/06/19 11:20:49;;;;;;;6.65;2.95;;;;;;;;;;10469374;28;20021;-84
2023/06/19 11:25:49;;;;;;;5.78;3.10;;;;;;;;;;10429500;28;20394;-78
2023/06/19 11:30:57;;;;;;;4.53;3.10;;;;;;;;;;10440112;28;20016;-78
2023/06/19 11:36:00;;;;;;;9.95;3.33;;;;;;;;;;10458695;28;20032;-77
2023/06/19 11:41:00;;;;;;;6.45;3.47;;;;;;;;;;10485476;28;20024;-77
2023/06/19 11:46:04;;;;;;;4.57;3.22;;;;;;;;;;10487370;28;20025;-79
2023/06/19 11:51:04;;;;;;;6.38;3.75;;;;;;;;;;10486990;28;20013;-76
2023/06/19 11:56:05;;;;;;;6.57;3.60;;;;;;;;;;10486892;28;20050;-78
2023/06/19 12:01:05;;;;;;;6.27;3.57;;;;;;;;;;10485511;28;20025;-78
2023/06/19 12:06:05;;;;;;;5.37;3.07;;;;;;;;;;10485495;28;20052;-86
2023/06/19 12:11:08;;;;;;;7.85;3.92;;;;;;;;;;10468006;28;20032;-78
2023/06/19 12:16:11;;;;;;;5.97;3.17;;;;;;;;;;10481151;28;20062;-81
2023/06/19 12:21:11;;;;;;;5.75;3.03;;;;;;;;;;10484282;28;20021;-77
2023/06/19 12:26:11;;;;;;;7.00;3.83;;;;;;;;;;10450210;28;20053;-75
2023/06/19 12:31:13;;;;;;;6.75;3.85;;;;;;;;;;10480344;28;20021;-82
2023/06/19 12:36:14;;;;;;;5.70;3.42;;;;;;;;;;10482711;28;20024;-85
2023/06/19 12:41:14;;;;;;;4.32;3.17;;;;;;;;;;10483458;28;20028;-77
2023/06/19 12:46:15;;;;;;;7.10;3.78;;;;;;;;;;10482516;28;20009;-78
2023/06/19 12:51:15;;;;;;;9.97;3.17;;;;;;;;;;10447083;28;20057;-78
2023/06/19 12:56:16;;;;;;;4.95;3.40;;;;;;;;;;10470526;28;20020;-78
2023/06/19 13:01:16;;;;;;;5.78;3.38;;;;;;;;;;10481491;28;20028;-81
2023/06/19 13:06:16;;;;;;;5.40;3.38;;;;;;;;;;10483579;28;20021;-76
2023/06/19 13:11:17;;;;;;;9.55;3.70;;;;;;;;;;10456808;28;20029;-78
2023/06/19 13:16:18;;;;;;;7.83;3.43;;;;;;;;;;10439836;28;20052;-77
2023/06/19 13:21:18;;;;;;;4.85;3.58;;;;;;;;;;10458307;28;20070;-77
2023/06/19 13:26:19;;;;;;;4.70;3.28;;;;;;;;;;10474281;28;20620;-84
2023/06/19 13:31:20;;;;;;;5.95;3.05;;;;;;;;;;10503744;22;20529;-84
2023/06/19 13:36:22;;;;;;;9.43;3.17;;;;;;;;;;10566679;28;20027;-80
2023/06/19 13:41:26;;;;;;;7.13;3.40;;;;;;;;;;10567895;28;20034;-81
2023/06/19 13:46:27;;;;;;;4.78;3.00;;;;;;;;;;10561510;28;20043;-77
2023/06/19 13:51:27;;;;;;;15.20;3.47;;;;;;;;;;10505544;28;20528;-77
2023/06/19 13:56:27;;;;;;;4.13;2.90;;;;;;;;;;10522511;28;20024;-77
2023/06/19 14:01:28;;;;;;;5.13;3.30;;;;;;;;;;10556611;28;20292;-82
2023/06/19 14:06:28;;;;;;;5.63;3.23;;;;;;;;;;10563823;28;20030;-80
2023/06/19 14:11:29;;;;;;;6.32;3.38;;;;;;;;;;10563250;28;20061;-77
2023/06/19 14:16:30;;;;;;;9.20;3.63;;;;;;;;;;10563316;28;20444;-77
2023/06/19 14:21:30;;;;;;;5.50;3.22;;;;;;;;;;10547914;22;20101;-72
2023/06/19 14:26:30;;;;;;;6.28;3.90;;;;;;;;;;10538936;28;20027;-72
2023/06/19 14:31:30;;;;;;;9.98;2.88;;;;;;;;;;10538432;28;20131;-73
2023/06/19 14:36:31;;;;;;;7.57;3.40;;;;;;;;;;10538443;28;20305;-71
2023/06/19 14:41:31;;;;;;;7.63;3.40;;;;;;;;;;10508303;28;20032;-72
2023/06/19 14:46:31;;;;;;;7.32;3.53;;;;;;;;;;10530191;28;20085;-72
2023/06/19 14:51:32;;;;;;;6.18;3.78;;;;;;;;;;10517903;28;20020;-72
2023/06/19 14:56:32;;;;;;;4.15;3.25;;;;;;;;;;10537364;28;20087;-72
2023/06/19 15:01:32;;;;;;;33.87;31.17;;;;;;;;;;10540186;28;20070;-72
2023/06/19 15:06:32;;;;;;;4.70;3.63;;;;;;;;;;10541195;28;20011;-72
2023/06/19 15:11:33;;;;;;;7.63;4.03;;;;;;;;;;10540720;28;20041;-72
2023/06/19 15:16:33;;;;;;;8.40;4.10;;;;;;;;;;10542087;28;20035;-72
2023/06/19 15:21:34;;;;;;;8.05;4.20;;;;;;;;;;10544043;28;20227;-72
2023/06/19 15:26:35;;;;;;;4.65;3.35;;;;;;;;;;10544422;28;20129;-72
2023/06/19 15:31:36;;;;;;;5.72;3.10;;;;;;;;;;10544773;28;20020;-73
2023/06/19 15:36:36;;;;;;;4.97;3.80;;;;;;;;;;10544240;28;20024;-73
2023/06/19 15:41:36;;;;;;;14.00;4.10;;;;;;;;;;10544363;28;20034;-72
2023/06/19 15:46:37;;;;;;;7.20;4.15;;;;;;;;;;10517924;28;20085;-72
2023/06/19 15:51:37;;;;;;;8.70;4.07;;;;;;;;;;10510769;28;20039;-72
2023/06/19 15:56:37;;;;;;;5.43;4.18;;;;;;;;;;10543917;28;20306;-72
2023/06/19 16:01:38;;;;;;;7.57;4.30;;;;;;;;;;10543560;28;20088;-71
2023/06/19 16:06:39;;;;;;;10.63;4.35;;;;;;;;;;10542928;28;20080;-72
2023/06/19 16:11:40;;;;;;;11.43;4.28;;;;;;;;;;10542820;28;20054;-72
2023/06/19 16:16:40;;;;;;;6.05;3.90;;;;;;;;;;10543081;28;20415;-72
2023/06/19 16:21:40;;;;;;;8.23;4.10;;;;;;;;;;10541198;28;20410;-74
2023/06/19 16:26:41;;;;;;;8.02;3.85;;;;;;;;;;10520252;28;20215;-71
2023/06/19 16:31:41;;;;;;;9.57;4.60;;;;;;;;;;10522975;28;20028;-73
2023/06/19 16:36:42;;;;;;;9.27;5.05;;;;;;;;;;10502863;28;20028;-73
2023/06/19 16:41:42;;;;;;;10.60;4.78;;;;;;;;;;10515131;28;20081;-72
2023/06/19 16:46:42;;;;;;;7.68;4.47;;;;;;;;;;10518212;28;20227;-71
2023/06/19 16:51:43;;;;;;;9.98;5.30;;;;;;;;;;10525586;28;20035;-72
2023/06/19 16:56:43;;;;;;;7.40;4.07;;;;;;;;;;10534707;28;20023;-72
2023/06/19 17:01:45;;;;;;;14.35;5.32;;;;;;;;;;10541327;28;20299;-72
2023/06/19 17:06:45;;;;;;;7.63;3.78;;;;;;;;;;10497962;28;20045;-72
2023/06/19 17:11:45;;;;;;;7.43;3.80;;;;;;;;;;10487291;28;20291;-72
2023/06/19 17:16:46;;;;;;;9.13;4.33;;;;;;;;;;10509666;28;20029;-72
2023/06/19 17:21:46;;;;;;;5.80;4.47;;;;;;;;;;10521151;28;20039;-72
2023/06/19 17:26:46;;;;;;;5.07;4.28;;;;;;;;;;10540398;28;20023;-72
2023/06/19 17:31:46;;;;;;;8.07;4.88;;;;;;;;;;10521792;28;20097;-71
2023/06/19 17:36:47;;;;;;;6.70;4.50;;;;;;;;;;10522355;28;20353;-71
2023/06/19 17:41:47;;;;;;;9.02;4.13;;;;;;;;;;10502929;28;20098;-72
2023/06/19 17:46:47;;;;;;;8.55;5.65;;;;;;;;;;10540401;28;20055;-71
2023/06/19 17:51:48;;;;;;;10.18;5.70;;;;;;;;;;10537007;28;20049;-72
2023/06/19 17:56:48;;;;;;;23.77;22.10;;;;;;;;;;10539712;28;20052;-72
2023/06/19 18:01:49;;;;;;;13.55;4.95;;;;;;;;;;10539085;28;20024;-71
2023/06/19 18:06:49;;;;;;;20.50;18.85;;;;;;;;;;10537864;28;20020;-71
2023/06/19 18:11:49;;;;;;;9.80;7.50;;;;;;;;;;10531747;28;20221;-71
2023/06/19 18:16:53;;;;;;;7.95;4.72;;;;;;;;;;10521456;28;20110;-72
2023/06/19 18:21:53;;;;;;;8.32;5.75;;;;;;;;;;10538896;28;20337;-72
2023/06/19 18:26:54;;;;;;;9.90;6.13;;;;;;;;;;10512820;28;20041;-72
2023/06/19 18:31:54;;;;;;;28.00;25.70;;;;;;;;;;10506404;28;20042;-69
2023/06/19 18:36:54;;;;;;;134.03;125.77;;;;;;;;;;10545728;28;20270;-71
2023/06/19 18:41:55;;;;;;;220.95;206.90;;;;;;;;;;10489492;28;20031;-71
2023/06/19 18:46:55;;;;;;;201.43;189.47;;;;;;;;;;10524282;28;20249;-73
2023/06/19 18:51:55;;;;;;;21.97;6.93;;;;;;;;;;10515540;28;20214;-73
2023/06/19 18:56:56;;;;;;;19.55;8.18;;;;;;;;;;10528453;28;20038;-74
2023/06/19 19:01:56;;;;;;;55.15;51.63;;;;;;;;;;10542744;28;20301;-72
2023/06/19 19:06:56;;;;;;;117.68;110.40;;;;;;;;;;10501654;28;20023;-72
2023/06/19 19:11:56;;;;;;;246.07;231.90;;;;;;;;;;10503248;28;20028;-73
2023/06/19 19:16:57;;;;;;;9.98;6.85;;;;;;;;;;10521415;28;20017;-71
2023/06/19 19:21:57;;;;;;;14.02;7.22;;;;;;;;;;10512177;28;20322;-73
2023/06/19 19:26:57;;;;;;;11.10;6.57;;;;;;;;;;10535008;28;20023;-72
2023/06/19 19:31:57;;;;;;;13.88;6.97;;;;;;;;;;10542134;28;20032;-72
2023/06/19 19:36:58;;;;;;;14.18;6.53;;;;;;;;;;10544168;28;20024;-72
2023/06/19 19:41:58;;;;;;;16.15;6.72;;;;;;;;;;10544797;28;20410;-72
2023/06/19 19:46:59;;;;;;;9.10;6.15;;;;;;;;;;10544047;28;20028;-72
2023/06/19 19:51:59;;;;;;;10.82;6.15;;;;;;;;;;10544603;28;20179;-72
2023/06/19 19:57:00;;;;;;;11.63;6.27;;;;;;;;;;10544101;28;20039;-72
2023/06/19 20:02:00;;;;;;;10.57;7.00;;;;;;;;;;10549829;28;20213;-72
2023/06/19 20:07:00;;;;;;;9.77;6.53;;;;;;;;;;10531123;28;20036;-72
2023/06/19 20:12:01;;;;;;;9.75;6.45;;;;;;;;;;10503447;28;20016;-73
2023/06/19 20:17:01;;;;;;;11.27;6.22;;;;;;;;;;10525472;28;20217;-72
2023/06/19 20:22:02;;;;;;;15.45;7.13;;;;;;;;;;10523093;28;20037;-73
2023/06/19 20:27:02;;;;;;;10.82;6.13;;;;;;;;;;10515911;28;20028;-72
2023/06/19 20:32:03;;;;;;;10.67;6.40;;;;;;;;;;10542566;28;20024;-72
2023/06/19 20:37:03;;;;;;;12.13;7.50;;;;;;;;;;10510355;28;20023;-72
2023/06/19 20:42:03;;;;;;;16.63;7.10;;;;;;;;;;10499529;28;20028;-72
2023/06/19 20:47:04;;;;;;;9.20;5.97;;;;;;;;;;10500058;28;20040;-72
2023/06/19 20:52:04;;;;;;;8.77;5.53;;;;;;;;;;10537161;28;20149;-73
2023/06/19 20:57:05;;;;;;;9.43;6.03;;;;;;;;;;10541255;28;20027;-73
2023/06/19 21:02:08;;;;;;;7.70;5.95;;;;;;;;;;10523449;28;20019;-73
2023/06/19 21:07:09;;;;;;;7.47;4.95;;;;;;;;;;10541806;28;20020;-71
2023/06/19 21:12:09;;;;;;;8.48;5.32;;;;;;;;;;10540950;28;20313;-71
2023/06/19 21:17:09;;;;;;;11.60;4.72;;;;;;;;;;10541569;28;20310;-72
2023/06/19 21:22:10;;;;;;;20.42;5.30;;;;;;;;;;10540904;28;20106;-71
2023/06/19 21:27:10;;;;;;;9.15;5.72;;;;;;;;;;10541295;28;20555;-72
2023/06/19 21:32:10;;;;;;;12.27;5.47;;;;;;;;;;10540081;28;20024;-71
2023/06/19 21:37:11;;;;;;;7.70;5.30;;;;;;;;;;10540702;28;20310;-71
2023/06/19 21:42:11;;;;;;;18.60;6.20;;;;;;;;;;10540768;28;20303;-71
2023/06/19 21:47:11;;;;;;;13.38;6.30;;;;;;;;;;10540310;28;20322;-72
2023/06/19 21:52:11;;;;;;;10.85;6.18;;;;;;;;;;10539815;28;20020;-73
2023/06/19 21:57:12;;;;;;;12.82;6.03;;;;;;;;;;10540470;28;20020;-73
2023/06/19 22:02:13;;;;;;;9.68;6.70;;;;;;;;;;10540136;28;20020;-73
2023/06/19 22:07:15;;;;;;;9.40;6.03;;;;;;;;;;10539741;28;20035;-72
2023/06/19 22:12:16;;;;;;;13.10;6.60;;;;;;;;;;10514702;28;20374;-73
2023/06/19 22:17:16;;;;;;;12.73;6.30;;;;;;;;;;10530739;28;20020;-73
2023/06/19 22:22:16;;;;;;;9.45;6.30;;;;;;;;;;10530776;28;20460;-73
2023/06/19 22:27:16;;;;;;;13.07;6.50;;;;;;;;;;10518142;28;20011;-71
2023/06/19 22:32:18;;;;;;;13.05;6.82;;;;;;;;;;10510733;28;20042;-71
2023/06/19 22:37:18;;;;;;;8.07;6.00;;;;;;;;;;10538979;28;20211;-71
2023/06/19 22:42:19;;;;;;;16.10;5.63;;;;;;;;;;10520778;28;20023;-71
2023/06/19 22:47:20;;;;;;;10.32;5.95;;;;;;;;;;10539222;28;20031;-73
2023/06/19 22:52:22;;;;;;;11.70;5.53;;;;;;;;;;10538930;28;20031;-71
2023/06/19 22:57:23;;;;;;;9.15;6.40;;;;;;;;;;10538523;28;20048;-73
2023/06/19 23:02:23;;;;;;;8.85;5.63;;;;;;;;;;10538566;28;20038;-73
2023/06/19 23:07:23;;;;;;;8.98;5.60;;;;;;;;;;10507866;28;20325;-71
2023/06/19 23:12:23;;;;;;;9.85;6.47;;;;;;;;;;10503834;28;20048;-71
2023/06/19 23:17:24;;;;;;;10.77;6.25;;;;;;;;;;10538381;28;20070;-71
2023/06/19 23:22:24;;;;;;;16.60;6.07;;;;;;;;;;10543031;28;20343;-71
2023/06/19 23:27:25;;;;;;;12.68;6.05;;;;;;;;;;10544564;28;20205;-71
2023/06/19 23:32:25;;;;;;;8.60;6.28;;;;;;;;;;10483731;28;20035;-71
2023/06/19 23:37:28;;;;;;;9.63;5.90;;;;;;;;;;10516210;28;20347;-71
2023/06/19 23:42:28;;;;;;;11.10;4.88;;;;;;;;;;10544951;28;20039;-71
2023/06/19 23:47:29;;;;;;;7.80;5.53;;;;;;;;;;10526915;28;20054;-72
2023/06/19 23:52:29;;;;;;;9.95;5.63;;;;;;;;;;10544696;28;20507;-71
2023/06/19 23:57:29;;;;;;;9.32;5.80;;;;;;;;;;10544481;28;20278;-71
